sensor_id;sensor_type;location;lat;lon;timestamp;P1;durP1;ratioP1;P2;durP2;ratioP2
78989;SDS011;68390;52.130;21.218;2023-08-21T00:01:07;23.60;;;21.08;;
78989;SDS011;68390;52.130;21.218;2023-08-21T00:03:33;25.27;;;22.50;;
78989;SDS011;68390;52.130;21.218;2023-08-21T00:05:59;27.52;;;24.23;;
78989;SDS011;68390;52.130;21.218;2023-08-21T00:08:25;25.17;;;21.02;;
78989;SDS011;68390;52.130;21.218;2023-08-21T00:10:50;26.30;;;22.90;;
78989;SDS011;68390;52.130;21.218;2023-08-21T00:13:15;26.27;;;22.25;;
78989;SDS011;68390;52.130;21.218;2023-08-21T00:15:41;26.80;;;22.63;;
78989;SDS011;68390;52.130;21.218;2023-08-21T00:18:06;30.08;;;24.65;;
78989;SDS011;68390;52.130;21.218;2023-08-21T00:20:32;23.30;;;19.73;;
78989;SDS011;68390;52.130;21.218;2023-08-21T00:22:57;30.42;;;24.70;;
78989;SDS011;68390;52.130;21.218;2023-08-21T00:25:23;31.05;;;24.60;;
78989;SDS011;68390;52.130;21.218;2023-08-21T00:27:50;27.35;;;22.52;;
78989;SDS011;68390;52.130;21.218;2023-08-21T00:30:15;23.05;;;20.63;;
78989;SDS011;68390;52.130;21.218;2023-08-21T00:32:41;24.65;;;20.50;;
78989;SDS011;68390;52.130;21.218;2023-08-21T00:35:07;26.23;;;23.33;;
78989;SDS011;68390;52.130;21.218;2023-08-21T00:37:33;26.42;;;22.88;;
78989;SDS011;68390;52.130;21.218;2023-08-21T00:39:58;27.02;;;22.05;;
78989;SDS011;68390;52.130;21.218;2023-08-21T00:42:24;27.83;;;21.70;;
78989;SDS011;68390;52.130;21.218;2023-08-21T00:44:50;25.90;;;23.10;;
78989;SDS011;68390;52.130;21.218;2023-08-21T00:47:16;23.43;;;20.77;;
78989;SDS011;68390;52.130;21.218;2023-08-21T00:49:42;24.80;;;21.15;;
78989;SDS011;68390;52.130;21.218;2023-08-21T00:52:08;30.75;;;25.40;;
78989;SDS011;68390;52.130;21.218;2023-08-21T00:54:38;29.38;;;25.02;;
78989;SDS011;68390;52.130;21.218;2023-08-21T00:57:03;28.02;;;23.60;;
78989;SDS011;68390;52.130;21.218;2023-08-21T00:59:30;28.35;;;24.33;;
78989;SDS011;68390;52.130;21.218;2023-08-21T01:01:56;31.90;;;25.95;;
78989;SDS011;68390;52.130;21.218;2023-08-21T01:04:21;24.38;;;21.08;;
78989;SDS011;68390;52.130;21.218;2023-08-21T01:06:48;25.98;;;22.48;;
78989;SDS011;68390;52.130;21.218;2023-08-21T01:09:22;28.30;;;23.88;;
78989;SDS011;68390;52.130;21.218;2023-08-21T01:14:47;24.30;;;21.70;;
78989;SDS011;68390;52.130;21.218;2023-08-21T01:17:22;29.58;;;25.30;;
78989;SDS011;68390;52.130;21.218;2023-08-21T01:19:49;23.52;;;20.38;;
78989;SDS011;68390;52.130;21.218;2023-08-21T01:22:15;22.20;;;19.52;;
78989;SDS011;68390;52.130;21.218;2023-08-21T01:24:41;27.67;;;22.42;;
78989;SDS011;68390;52.130;21.218;2023-08-21T01:27:07;26.58;;;23.23;;
78989;SDS011;68390;52.130;21.218;2023-08-21T01:29:34;24.70;;;20.60;;
78989;SDS011;68390;52.130;21.218;2023-08-21T01:34:33;22.80;;;19.67;;
78989;SDS011;68390;52.130;21.218;2023-08-21T01:37:00;26.08;;;21.83;;
78989;SDS011;68390;52.130;21.218;2023-08-21T01:39:26;24.77;;;20.05;;
78989;SDS011;68390;52.130;21.218;2023-08-21T01:41:54;24.70;;;20.63;;
78989;SDS011;68390;52.130;21.218;2023-08-21T01:44:21;26.35;;;23.42;;
78989;SDS011;68390;52.130;21.218;2023-08-21T01:46:47;30.17;;;24.30;;
78989;SDS011;68390;52.130;21.218;2023-08-21T01:49:13;24.02;;;20.73;;
78989;SDS011;68390;52.130;21.218;2023-08-21T01:51:39;29.30;;;23.50;;
78989;SDS011;68390;52.130;21.218;2023-08-21T01:54:04;26.90;;;22.58;;
78989;SDS011;68390;52.130;21.218;2023-08-21T01:56:29;29.80;;;24.27;;
78989;SDS011;68390;52.130;21.218;2023-08-21T01:58:55;30.42;;;24.83;;
78989;SDS011;68390;52.130;21.218;2023-08-21T02:01:21;28.33;;;24.15;;
78989;SDS011;68390;52.130;21.218;2023-08-21T02:03:47;29.98;;;23.92;;
78989;SDS011;68390;52.130;21.218;2023-08-21T02:06:12;33.30;;;24.70;;
78989;SDS011;68390;52.130;21.218;2023-08-21T02:08:38;30.90;;;23.98;;
78989;SDS011;68390;52.130;21.218;2023-08-21T02:11:04;27.17;;;21.38;;
78989;SDS011;68390;52.130;21.218;2023-08-21T02:13:29;26.38;;;21.23;;
78989;SDS011;68390;52.130;21.218;2023-08-21T02:15:55;22.45;;;18.40;;
78989;SDS011;68390;52.130;21.218;2023-08-21T02:18:21;29.27;;;22.42;;
78989;SDS011;68390;52.130;21.218;2023-08-21T02:20:47;24.95;;;20.80;;
78989;SDS011;68390;52.130;21.218;2023-08-21T02:23:14;28.00;;;23.05;;
78989;SDS011;68390;52.130;21.218;2023-08-21T02:25:43;26.88;;;20.27;;
78989;SDS011;68390;52.130;21.218;2023-08-21T02:28:08;32.25;;;25.20;;
78989;SDS011;68390;52.130;21.218;2023-08-21T02:30:33;30.13;;;24.92;;
78989;SDS011;68390;52.130;21.218;2023-08-21T02:32:59;23.90;;;21.30;;
78989;SDS011;68390;52.130;21.218;2023-08-21T02:35:45;29.17;;;23.92;;
78989;SDS011;68390;52.130;21.218;2023-08-21T02:38:11;21.23;;;18.85;;
78989;SDS011;68390;52.130;21.218;2023-08-21T02:40:36;28.52;;;22.75;;
78989;SDS011;68390;52.130;21.218;2023-08-21T02:43:01;30.45;;;24.45;;
78989;SDS011;68390;52.130;21.218;2023-08-21T02:45:28;32.50;;;25.92;;
78989;SDS011;68390;52.130;21.218;2023-08-21T02:47:54;28.00;;;23.38;;
78989;SDS011;68390;52.130;21.218;2023-08-21T02:50:19;22.65;;;19.10;;
78989;SDS011;68390;52.130;21.218;2023-08-21T02:52:44;26.45;;;21.38;;
78989;SDS011;68390;52.130;21.218;2023-08-21T02:55:10;28.70;;;23.60;;
78989;SDS011;68390;52.130;21.218;2023-08-21T02:57:35;28.33;;;23.20;;
78989;SDS011;68390;52.130;21.218;2023-08-21T03:02:30;27.05;;;20.00;;
78989;SDS011;68390;52.130;21.218;2023-08-21T03:04:56;24.80;;;20.67;;
78989;SDS011;68390;52.130;21.218;2023-08-21T03:07:22;24.65;;;19.77;;
78989;SDS011;68390;52.130;21.218;2023-08-21T03:09:48;23.27;;;19.40;;
78989;SDS011;68390;52.130;21.218;2023-08-21T03:12:14;31.58;;;25.13;;
78989;SDS011;68390;52.130;21.218;2023-08-21T03:14:40;31.75;;;24.92;;
78989;SDS011;68390;52.130;21.218;2023-08-21T03:17:06;26.70;;;20.60;;
78989;SDS011;68390;52.130;21.218;2023-08-21T03:19:32;24.20;;;20.48;;
78989;SDS011;68390;52.130;21.218;2023-08-21T03:21:58;29.08;;;24.98;;
78989;SDS011;68390;52.130;21.218;2023-08-21T03:24:23;32.22;;;24.85;;
78989;SDS011;68390;52.130;21.218;2023-08-21T03:26:49;31.17;;;24.40;;
78989;SDS011;68390;52.130;21.218;2023-08-21T03:29:15;28.75;;;22.85;;
78989;SDS011;68390;52.130;21.218;2023-08-21T03:31:40;29.23;;;22.67;;
78989;SDS011;68390;52.130;21.218;2023-08-21T03:34:07;26.00;;;20.60;;
78989;SDS011;68390;52.130;21.218;2023-08-21T03:36:33;34.10;;;25.30;;
78989;SDS011;68390;52.130;21.218;2023-08-21T03:39:00;35.38;;;24.17;;
78989;SDS011;68390;52.130;21.218;2023-08-21T03:41:26;32.75;;;24.23;;
78989;SDS011;68390;52.130;21.218;2023-08-21T03:43:53;34.45;;;24.83;;
78989;SDS011;68390;52.130;21.218;2023-08-21T03:46:18;34.97;;;26.30;;
78989;SDS011;68390;52.130;21.218;2023-08-21T03:48:44;32.13;;;22.95;;
78989;SDS011;68390;52.130;21.218;2023-08-21T03:51:10;34.00;;;23.95;;
78989;SDS011;68390;52.130;21.218;2023-08-21T03:53:36;34.03;;;25.00;;
78989;SDS011;68390;52.130;21.218;2023-08-21T03:56:03;36.63;;;24.52;;
78989;SDS011;68390;52.130;21.218;2023-08-21T03:58:29;33.72;;;23.38;;
78989;SDS011;68390;52.130;21.218;2023-08-21T04:00:55;31.42;;;22.98;;
78989;SDS011;68390;52.130;21.218;2023-08-21T04:03:21;29.17;;;23.38;;
78989;SDS011;68390;52.130;21.218;2023-08-21T04:05:47;32.08;;;24.52;;
78989;SDS011;68390;52.130;21.218;2023-08-21T04:08:12;36.00;;;25.67;;
78989;SDS011;68390;52.130;21.218;2023-08-21T04:10:39;32.58;;;26.15;;
78989;SDS011;68390;52.130;21.218;2023-08-21T04:13:06;30.95;;;23.50;;
78989;SDS011;68390;52.130;21.218;2023-08-21T04:15:33;31.13;;;22.88;;
78989;SDS011;68390;52.130;21.218;2023-08-21T04:18:00;27.67;;;21.60;;
78989;SDS011;68390;52.130;21.218;2023-08-21T04:20:25;31.17;;;24.20;;
78989;SDS011;68390;52.130;21.218;2023-08-21T04:22:51;29.83;;;23.77;;
78989;SDS011;68390;52.130;21.218;2023-08-21T04:25:17;31.17;;;23.50;;
78989;SDS011;68390;52.130;21.218;2023-08-21T04:27:42;28.98;;;23.10;;
78989;SDS011;68390;52.130;21.218;2023-08-21T04:30:09;28.95;;;22.00;;
78989;SDS011;68390;52.130;21.218;2023-08-21T04:32:35;26.65;;;21.73;;
78989;SDS011;68390;52.130;21.218;2023-08-21T04:35:01;32.92;;;25.58;;
78989;SDS011;68390;52.130;21.218;2023-08-21T04:37:27;30.13;;;24.08;;
78989;SDS011;68390;52.130;21.218;2023-08-21T04:39:53;29.30;;;23.83;;
78989;SDS011;68390;52.130;21.218;2023-08-21T04:42:19;27.33;;;21.73;;
78989;SDS011;68390;52.130;21.218;2023-08-21T04:44:45;33.65;;;25.23;;
78989;SDS011;68390;52.130;21.218;2023-08-21T04:47:45;29.30;;;23.45;;
78989;SDS011;68390;52.130;21.218;2023-08-21T04:50:03;29.67;;;23.30;;
78989;SDS011;68390;52.130;21.218;2023-08-21T04:52:29;31.85;;;23.80;;
78989;SDS011;68390;52.130;21.218;2023-08-21T04:54:55;31.05;;;25.13;;
78989;SDS011;68390;52.130;21.218;2023-08-21T04:57:20;32.00;;;24.38;;
78989;SDS011;68390;52.130;21.218;2023-08-21T04:59:46;31.58;;;25.40;;
78989;SDS011;68390;52.130;21.218;2023-08-21T05:04:40;32.13;;;24.50;;
78989;SDS011;68390;52.130;21.218;2023-08-21T05:07:06;32.70;;;23.67;;
78989;SDS011;68390;52.130;21.218;2023-08-21T05:09:31;29.77;;;24.92;;
78989;SDS011;68390;52.130;21.218;2023-08-21T05:11:58;36.72;;;27.30;;
78989;SDS011;68390;52.130;21.218;2023-08-21T05:14:23;29.20;;;22.98;;
78989;SDS011;68390;52.130;21.218;2023-08-21T05:16:49;31.55;;;23.70;;
78989;SDS011;68390;52.130;21.218;2023-08-21T05:19:16;38.97;;;27.83;;
78989;SDS011;68390;52.130;21.218;2023-08-21T05:21:41;26.75;;;22.17;;
78989;SDS011;68390;52.130;21.218;2023-08-21T05:24:11;31.83;;;25.25;;
78989;SDS011;68390;52.130;21.218;2023-08-21T05:26:37;32.88;;;24.30;;
78989;SDS011;68390;52.130;21.218;2023-08-21T05:29:03;27.63;;;23.02;;
78989;SDS011;68390;52.130;21.218;2023-08-21T05:31:29;29.30;;;24.67;;
78989;SDS011;68390;52.130;21.218;2023-08-21T05:33:55;28.60;;;24.38;;
78989;SDS011;68390;52.130;21.218;2023-08-21T05:36:20;31.63;;;24.40;;
78989;SDS011;68390;52.130;21.218;2023-08-21T05:38:46;23.38;;;19.63;;
78989;SDS011;68390;52.130;21.218;2023-08-21T05:41:13;30.15;;;23.75;;
78989;SDS011;68390;52.130;21.218;2023-08-21T05:43:38;25.02;;;21.60;;
78989;SDS011;68390;52.130;21.218;2023-08-21T05:46:07;34.85;;;24.73;;
78989;SDS011;68390;52.130;21.218;2023-08-21T05:48:33;27.77;;;22.83;;
78989;SDS011;68390;52.130;21.218;2023-08-21T05:50:59;24.27;;;20.30;;
78989;SDS011;68390;52.130;21.218;2023-08-21T05:53:24;29.42;;;23.27;;
78989;SDS011;68390;52.130;21.218;2023-08-21T05:55:50;28.83;;;23.48;;
78989;SDS011;68390;52.130;21.218;2023-08-21T05:58:15;27.13;;;22.67;;
78989;SDS011;68390;52.130;21.218;2023-08-21T06:00:40;27.73;;;23.23;;
78989;SDS011;68390;52.130;21.218;2023-08-21T06:03:06;23.48;;;18.08;;
78989;SDS011;68390;52.130;21.218;2023-08-21T06:05:31;26.50;;;21.05;;
78989;SDS011;68390;52.130;21.218;2023-08-21T06:07:56;23.98;;;19.35;;
78989;SDS011;68390;52.130;21.218;2023-08-21T06:10:22;24.02;;;19.95;;
78989;SDS011;68390;52.130;21.218;2023-08-21T06:12:47;19.70;;;17.67;;
78989;SDS011;68390;52.130;21.218;2023-08-21T06:15:13;25.55;;;20.63;;
78989;SDS011;68390;52.130;21.218;2023-08-21T06:17:39;22.30;;;18.02;;
78989;SDS011;68390;52.130;21.218;2023-08-21T06:20:06;27.42;;;20.40;;
78989;SDS011;68390;52.130;21.218;2023-08-21T06:22:33;26.65;;;21.88;;
78989;SDS011;68390;52.130;21.218;2023-08-21T06:24:59;24.73;;;21.25;;
78989;SDS011;68390;52.130;21.218;2023-08-21T06:27:24;25.02;;;19.77;;
78989;SDS011;68390;52.130;21.218;2023-08-21T06:29:50;30.83;;;23.10;;
78989;SDS011;68390;52.130;21.218;2023-08-21T06:32:15;26.10;;;20.90;;
78989;SDS011;68390;52.130;21.218;2023-08-21T06:34:41;24.20;;;21.60;;
78989;SDS011;68390;52.130;21.218;2023-08-21T06:37:06;23.92;;;20.00;;
78989;SDS011;68390;52.130;21.218;2023-08-21T06:39:31;24.42;;;20.80;;
78989;SDS011;68390;52.130;21.218;2023-08-21T06:41:57;23.02;;;20.23;;
78989;SDS011;68390;52.130;21.218;2023-08-21T06:44:22;25.23;;;19.20;;
78989;SDS011;68390;52.130;21.218;2023-08-21T06:46:48;21.50;;;17.77;;
78989;SDS011;68390;52.130;21.218;2023-08-21T06:49:13;25.05;;;20.25;;
78989;SDS011;68390;52.130;21.218;2023-08-21T06:51:38;20.95;;;17.92;;
78989;SDS011;68390;52.130;21.218;2023-08-21T06:54:04;24.92;;;19.52;;
78989;SDS011;68390;52.130;21.218;2023-08-21T06:56:29;25.73;;;20.17;;
78989;SDS011;68390;52.130;21.218;2023-08-21T06:58:54;26.58;;;21.45;;
78989;SDS011;68390;52.130;21.218;2023-08-21T07:01:20;26.63;;;21.20;;
78989;SDS011;68390;52.130;21.218;2023-08-21T07:03:46;27.88;;;21.77;;
78989;SDS011;68390;52.130;21.218;2023-08-21T07:06:11;25.38;;;20.98;;
78989;SDS011;68390;52.130;21.218;2023-08-21T07:08:37;23.85;;;21.08;;
78989;SDS011;68390;52.130;21.218;2023-08-21T07:11:04;28.10;;;22.10;;
78989;SDS011;68390;52.130;21.218;2023-08-21T07:13:29;27.00;;;19.33;;
78989;SDS011;68390;52.130;21.218;2023-08-21T07:15:55;25.92;;;21.13;;
78989;SDS011;68390;52.130;21.218;2023-08-21T07:18:20;26.45;;;21.77;;
78989;SDS011;68390;52.130;21.218;2023-08-21T07:20:45;26.90;;;20.60;;
78989;SDS011;68390;52.130;21.218;2023-08-21T07:23:11;26.67;;;22.02;;
78989;SDS011;68390;52.130;21.218;2023-08-21T07:25:36;23.42;;;20.85;;
78989;SDS011;68390;52.130;21.218;2023-08-21T07:28:02;24.33;;;20.85;;
78989;SDS011;68390;52.130;21.218;2023-08-21T07:30:28;25.27;;;20.90;;
78989;SDS011;68390;52.130;21.218;2023-08-21T07:32:54;27.25;;;21.13;;
78989;SDS011;68390;52.130;21.218;2023-08-21T07:35:19;26.35;;;21.75;;
78989;SDS011;68390;52.130;21.218;2023-08-21T07:37:46;24.60;;;21.52;;
78989;SDS011;68390;52.130;21.218;2023-08-21T07:40:11;29.70;;;23.48;;
78989;SDS011;68390;52.130;21.218;2023-08-21T07:42:37;27.45;;;24.17;;
78989;SDS011;68390;52.130;21.218;2023-08-21T07:45:03;32.65;;;24.67;;
78989;SDS011;68390;52.130;21.218;2023-08-21T07:47:29;27.30;;;22.85;;
78989;SDS011;68390;52.130;21.218;2023-08-21T07:49:54;31.20;;;24.08;;
78989;SDS011;68390;52.130;21.218;2023-08-21T07:52:21;32.67;;;24.67;;
78989;SDS011;68390;52.130;21.218;2023-08-21T07:54:50;23.40;;;20.90;;
78989;SDS011;68390;52.130;21.218;2023-08-21T07:57:17;31.23;;;24.80;;
78989;SDS011;68390;52.130;21.218;2023-08-21T07:59:43;28.95;;;24.02;;
78989;SDS011;68390;52.130;21.218;2023-08-21T08:02:08;31.98;;;25.17;;
78989;SDS011;68390;52.130;21.218;2023-08-21T08:04:35;27.08;;;23.15;;
78989;SDS011;68390;52.130;21.218;2023-08-21T08:07:00;25.85;;;23.05;;
78989;SDS011;68390;52.130;21.218;2023-08-21T08:09:26;23.48;;;20.40;;
78989;SDS011;68390;52.130;21.218;2023-08-21T08:11:51;28.33;;;24.00;;
78989;SDS011;68390;52.130;21.218;2023-08-21T08:14:16;26.70;;;23.63;;
78989;SDS011;68390;52.130;21.218;2023-08-21T08:16:42;25.13;;;22.45;;
78989;SDS011;68390;52.130;21.218;2023-08-21T08:19:07;25.58;;;21.38;;
78989;SDS011;68390;52.130;21.218;2023-08-21T08:21:33;24.40;;;20.73;;
78989;SDS011;68390;52.130;21.218;2023-08-21T08:23:58;24.08;;;21.10;;
78989;SDS011;68390;52.130;21.218;2023-08-21T08:26:23;23.40;;;20.45;;
78989;SDS011;68390;52.130;21.218;2023-08-21T08:28:49;19.98;;;17.88;;
78989;SDS011;68390;52.130;21.218;2023-08-21T08:31:15;30.35;;;23.55;;
78989;SDS011;68390;52.130;21.218;2023-08-21T08:33:41;25.00;;;20.98;;
78989;SDS011;68390;52.130;21.218;2023-08-21T08:36:06;26.30;;;21.13;;
78989;SDS011;68390;52.130;21.218;2023-08-21T08:38:32;25.40;;;21.40;;
78989;SDS011;68390;52.130;21.218;2023-08-21T08:40:57;23.63;;;20.55;;
78989;SDS011;68390;52.130;21.218;2023-08-21T08:43:24;23.40;;;19.67;;
78989;SDS011;68390;52.130;21.218;2023-08-21T08:45:50;21.00;;;18.75;;
78989;SDS011;68390;52.130;21.218;2023-08-21T08:48:17;24.55;;;20.45;;
78989;SDS011;68390;52.130;21.218;2023-08-21T08:50:45;21.17;;;17.83;;
78989;SDS011;68390;52.130;21.218;2023-08-21T08:53:10;27.15;;;19.92;;
78989;SDS011;68390;52.130;21.218;2023-08-21T08:55:37;23.52;;;19.65;;
78989;SDS011;68390;52.130;21.218;2023-08-21T08:58:03;23.00;;;19.48;;
78989;SDS011;68390;52.130;21.218;2023-08-21T09:00:28;22.05;;;19.65;;
78989;SDS011;68390;52.130;21.218;2023-08-21T09:02:54;19.20;;;17.20;;
78989;SDS011;68390;52.130;21.218;2023-08-21T09:05:20;21.98;;;18.73;;
78989;SDS011;68390;52.130;21.218;2023-08-21T09:07:45;23.52;;;19.45;;
78989;SDS011;68390;52.130;21.218;2023-08-21T09:10:15;21.40;;;18.63;;
78989;SDS011;68390;52.130;21.218;2023-08-21T09:12:40;20.45;;;17.45;;
78989;SDS011;68390;52.130;21.218;2023-08-21T09:15:09;19.65;;;17.02;;
78989;SDS011;68390;52.130;21.218;2023-08-21T09:17:34;20.15;;;17.95;;
78989;SDS011;68390;52.130;21.218;2023-08-21T09:20:03;18.80;;;16.67;;
78989;SDS011;68390;52.130;21.218;2023-08-21T09:22:29;20.33;;;16.70;;
78989;SDS011;68390;52.130;21.218;2023-08-21T09:25:02;22.88;;;16.38;;
78989;SDS011;68390;52.130;21.218;2023-08-21T09:27:38;19.27;;;14.80;;
78989;SDS011;68390;52.130;21.218;2023-08-21T09:30:04;17.48;;;15.65;;
78989;SDS011;68390;52.130;21.218;2023-08-21T09:32:30;18.27;;;14.43;;
78989;SDS011;68390;52.130;21.218;2023-08-21T09:35:16;16.77;;;13.75;;
78989;SDS011;68390;52.130;21.218;2023-08-21T09:37:42;15.40;;;12.93;;
78989;SDS011;68390;52.130;21.218;2023-08-21T09:40:11;17.88;;;13.70;;
78989;SDS011;68390;52.130;21.218;2023-08-21T09:42:38;16.40;;;13.88;;
78989;SDS011;68390;52.130;21.218;2023-08-21T09:45:04;17.15;;;13.02;;
78989;SDS011;68390;52.130;21.218;2023-08-21T09:47:30;13.65;;;12.35;;
78989;SDS011;68390;52.130;21.218;2023-08-21T09:49:57;14.25;;;12.15;;
78989;SDS011;68390;52.130;21.218;2023-08-21T09:52:23;14.98;;;12.18;;
78989;SDS011;68390;52.130;21.218;2023-08-21T09:54:49;13.65;;;12.20;;
78989;SDS011;68390;52.130;21.218;2023-08-21T09:57:18;13.05;;;11.75;;
78989;SDS011;68390;52.130;21.218;2023-08-21T09:59:46;13.07;;;11.65;;
78989;SDS011;68390;52.130;21.218;2023-08-21T10:02:14;14.00;;;11.43;;
78989;SDS011;68390;52.130;21.218;2023-08-21T10:04:40;14.38;;;12.52;;
78989;SDS011;68390;52.130;21.218;2023-08-21T10:07:10;12.88;;;11.52;;
78989;SDS011;68390;52.130;21.218;2023-08-21T10:09:38;13.07;;;11.13;;
78989;SDS011;68390;52.130;21.218;2023-08-21T10:12:06;12.52;;;10.20;;
78989;SDS011;68390;52.130;21.218;2023-08-21T10:14:34;11.63;;;10.07;;
78989;SDS011;68390;52.130;21.218;2023-08-21T10:17:01;12.00;;;10.23;;
78989;SDS011;68390;52.130;21.218;2023-08-21T10:19:32;10.57;;;9.23;;
78989;SDS011;68390;52.130;21.218;2023-08-21T10:21:58;10.30;;;9.15;;
78989;SDS011;68390;52.130;21.218;2023-08-21T10:24:28;9.98;;;8.30;;
78989;SDS011;68390;52.130;21.218;2023-08-21T10:26:59;10.52;;;8.43;;
78989;SDS011;68390;52.130;21.218;2023-08-21T10:29:25;8.90;;;7.63;;
78989;SDS011;68390;52.130;21.218;2023-08-21T10:32:04;9.88;;;7.00;;
78989;SDS011;68390;52.130;21.218;2023-08-21T10:34:34;8.55;;;7.43;;
78989;SDS011;68390;52.130;21.218;2023-08-21T10:37:09;7.90;;;6.78;;
78989;SDS011;68390;52.130;21.218;2023-08-21T10:39:38;7.32;;;6.63;;
78989;SDS011;68390;52.130;21.218;2023-08-21T10:47:30;6.85;;;5.82;;
78989;SDS011;68390;52.130;21.218;2023-08-21T10:50:03;7.53;;;5.30;;
78989;SDS011;68390;52.130;21.218;2023-08-21T10:52:34;6.97;;;5.80;;
78989;SDS011;68390;52.130;21.218;2023-08-21T10:55:01;6.40;;;5.25;;
78989;SDS011;68390;52.130;21.218;2023-08-21T10:57:31;6.72;;;5.18;;
78989;SDS011;68390;52.130;21.218;2023-08-21T10:59:57;8.27;;;5.28;;
78989;SDS011;68390;52.130;21.218;2023-08-21T11:02:36;7.00;;;5.50;;
78989;SDS011;68390;52.130;21.218;2023-08-21T11:05:15;6.78;;;5.50;;
78989;SDS011;68390;52.130;21.218;2023-08-21T11:07:45;6.93;;;5.35;;
78989;SDS011;68390;52.130;21.218;2023-08-21T11:10:12;6.78;;;5.90;;
78989;SDS011;68390;52.130;21.218;2023-08-21T11:12:47;5.93;;;4.95;;
78989;SDS011;68390;52.130;21.218;2023-08-21T11:15:17;6.97;;;5.03;;
78989;SDS011;68390;52.130;21.218;2023-08-21T11:17:50;6.43;;;4.50;;
78989;SDS011;68390;52.130;21.218;2023-08-21T11:20:34;7.00;;;4.70;;
78989;SDS011;68390;52.130;21.218;2023-08-21T11:23:04;8.20;;;4.80;;
78989;SDS011;68390;52.130;21.218;2023-08-21T11:25:33;6.68;;;4.88;;
78989;SDS011;68390;52.130;21.218;2023-08-21T11:28:02;5.18;;;4.43;;
78989;SDS011;68390;52.130;21.218;2023-08-21T11:30:28;8.20;;;4.90;;
78989;SDS011;68390;52.130;21.218;2023-08-21T11:33:05;5.43;;;4.55;;
78989;SDS011;68390;52.130;21.218;2023-08-21T11:35:30;6.65;;;5.00;;
78989;SDS011;68390;52.130;21.218;2023-08-21T11:37:56;8.30;;;5.00;;
78989;SDS011;68390;52.130;21.218;2023-08-21T11:40:22;6.25;;;5.13;;
78989;SDS011;68390;52.130;21.218;2023-08-21T11:42:47;5.72;;;4.70;;
78989;SDS011;68390;52.130;21.218;2023-08-21T11:45:16;6.05;;;5.00;;
78989;SDS011;68390;52.130;21.218;2023-08-21T11:47:45;9.25;;;5.18;;
78989;SDS011;68390;52.130;21.218;2023-08-21T11:50:10;6.45;;;4.65;;
78989;SDS011;68390;52.130;21.218;2023-08-21T11:52:38;6.15;;;5.43;;
78989;SDS011;68390;52.130;21.218;2023-08-21T11:55:06;8.30;;;5.00;;
78989;SDS011;68390;52.130;21.218;2023-08-21T12:00:19;5.28;;;4.72;;
78989;SDS011;68390;52.130;21.218;2023-08-21T12:02:56;5.95;;;5.13;;
78989;SDS011;68390;52.130;21.218;2023-08-21T12:05:23;6.95;;;4.97;;
78989;SDS011;68390;52.130;21.218;2023-08-21T12:07:48;7.13;;;5.00;;
78989;SDS011;68390;52.130;21.218;2023-08-21T12:10:14;7.88;;;5.60;;
78989;SDS011;68390;52.130;21.218;2023-08-21T12:12:39;6.10;;;5.25;;
78989;SDS011;68390;52.130;21.218;2023-08-21T12:15:05;7.10;;;5.20;;
78989;SDS011;68390;52.130;21.218;2023-08-21T12:17:30;6.40;;;5.05;;
78989;SDS011;68390;52.130;21.218;2023-08-21T12:19:56;8.20;;;4.93;;
78989;SDS011;68390;52.130;21.218;2023-08-21T12:22:21;7.28;;;4.97;;
78989;SDS011;68390;52.130;21.218;2023-08-21T12:24:47;6.85;;;5.68;;
78989;SDS011;68390;52.130;21.218;2023-08-21T12:27:12;6.15;;;5.05;;
78989;SDS011;68390;52.130;21.218;2023-08-21T12:29:37;7.38;;;4.97;;
78989;SDS011;68390;52.130;21.218;2023-08-21T12:32:03;6.60;;;4.30;;
78989;SDS011;68390;52.130;21.218;2023-08-21T12:34:28;7.07;;;5.03;;
78989;SDS011;68390;52.130;21.218;2023-08-21T12:36:54;9.55;;;4.20;;
78989;SDS011;68390;52.130;21.218;2023-08-21T12:39:19;5.28;;;3.97;;
78989;SDS011;68390;52.130;21.218;2023-08-21T12:41:45;6.80;;;4.05;;
78989;SDS011;68390;52.130;21.218;2023-08-21T12:44:10;5.10;;;4.03;;
78989;SDS011;68390;52.130;21.218;2023-08-21T12:46:36;5.15;;;3.70;;
78989;SDS011;68390;52.130;21.218;2023-08-21T12:49:02;6.70;;;4.30;;
78989;SDS011;68390;52.130;21.218;2023-08-21T12:51:28;5.20;;;3.90;;
78989;SDS011;68390;52.130;21.218;2023-08-21T12:53:54;6.80;;;4.20;;
78989;SDS011;68390;52.130;21.218;2023-08-21T12:56:19;5.07;;;3.78;;
78989;SDS011;68390;52.130;21.218;2023-08-21T12:58:45;6.20;;;4.13;;
78989;SDS011;68390;52.130;21.218;2023-08-21T13:01:11;5.28;;;4.00;;
78989;SDS011;68390;52.130;21.218;2023-08-21T13:03:37;5.10;;;4.38;;
78989;SDS011;68390;52.130;21.218;2023-08-21T13:06:03;6.47;;;4.57;;
78989;SDS011;68390;52.130;21.218;2023-08-21T13:08:29;6.88;;;4.30;;
78989;SDS011;68390;52.130;21.218;2023-08-21T13:10:54;6.80;;;3.95;;
78989;SDS011;68390;52.130;21.218;2023-08-21T13:13:20;5.68;;;3.78;;
78989;SDS011;68390;52.130;21.218;2023-08-21T13:15:45;8.32;;;3.88;;
78989;SDS011;68390;52.130;21.218;2023-08-21T13:18:11;7.57;;;4.22;;
78989;SDS011;68390;52.130;21.218;2023-08-21T13:20:38;5.30;;;4.03;;
78989;SDS011;68390;52.130;21.218;2023-08-21T13:23:03;5.82;;;4.03;;
78989;SDS011;68390;52.130;21.218;2023-08-21T13:25:29;5.30;;;3.47;;
78989;SDS011;68390;52.130;21.218;2023-08-21T13:27:55;6.10;;;3.83;;
78989;SDS011;68390;52.130;21.218;2023-08-21T13:30:20;4.95;;;3.70;;
78989;SDS011;68390;52.130;21.218;2023-08-21T13:32:47;6.05;;;3.97;;
78989;SDS011;68390;52.130;21.218;2023-08-21T13:35:12;6.03;;;3.40;;
78989;SDS011;68390;52.130;21.218;2023-08-21T13:37:38;6.70;;;3.88;;
78989;SDS011;68390;52.130;21.218;2023-08-21T13:40:05;5.15;;;3.50;;
78989;SDS011;68390;52.130;21.218;2023-08-21T13:42:38;7.53;;;3.97;;
78989;SDS011;68390;52.130;21.218;2023-08-21T13:45:07;5.97;;;3.60;;
78989;SDS011;68390;52.130;21.218;2023-08-21T13:47:36;5.95;;;3.33;;
78989;SDS011;68390;52.130;21.218;2023-08-21T13:50:02;4.60;;;3.20;;
78989;SDS011;68390;52.130;21.218;2023-08-21T13:52:29;5.55;;;3.47;;
78989;SDS011;68390;52.130;21.218;2023-08-21T13:54:54;4.20;;;3.40;;
78989;SDS011;68390;52.130;21.218;2023-08-21T13:57:20;4.72;;;3.03;;
78989;SDS011;68390;52.130;21.218;2023-08-21T13:59:45;7.35;;;3.35;;
78989;SDS011;68390;52.130;21.218;2023-08-21T14:02:10;4.97;;;2.85;;
78989;SDS011;68390;52.130;21.218;2023-08-21T14:04:36;4.50;;;3.20;;
78989;SDS011;68390;52.130;21.218;2023-08-21T14:07:01;4.03;;;3.00;;
78989;SDS011;68390;52.130;21.218;2023-08-21T14:09:26;7.75;;;3.40;;
78989;SDS011;68390;52.130;21.218;2023-08-21T14:11:52;8.93;;;3.35;;
78989;SDS011;68390;52.130;21.218;2023-08-21T14:14:17;7.50;;;3.20;;
78989;SDS011;68390;52.130;21.218;2023-08-21T14:16:42;3.45;;;2.60;;
78989;SDS011;68390;52.130;21.218;2023-08-21T14:19:08;4.72;;;2.80;;
78989;SDS011;68390;52.130;21.218;2023-08-21T14:21:33;5.22;;;2.75;;
78989;SDS011;68390;52.130;21.218;2023-08-21T14:23:59;6.65;;;3.03;;
78989;SDS011;68390;52.130;21.218;2023-08-21T14:26:24;5.57;;;2.85;;
78989;SDS011;68390;52.130;21.218;2023-08-21T14:28:49;6.05;;;2.70;;
78989;SDS011;68390;52.130;21.218;2023-08-21T14:31:16;3.60;;;2.50;;